createdAt,value
2022-10-13T00:00:39.154Z,74.76
2022-10-13T00:01:39.129Z,75.37
2022-10-13T00:02:39.119Z,75.57
2022-10-13T00:03:39.109Z,75.26
2022-10-13T00:04:39.094Z,75.26
2022-10-13T00:05:39.085Z,75.06
2022-10-13T00:06:39.076Z,75.26
2022-10-13T00:07:39.064Z,75.06
2022-10-13T00:08:39.058Z,75.06
2022-10-13T00:09:39.043Z,75.4
2022-10-13T00:10:39.034Z,75.4
2022-10-13T00:11:39.024Z,76.35
2022-10-13T00:12:39.021Z,76.25
2022-10-13T00:13:39.007Z,77.2
2022-10-13T00:14:38.997Z,77.06
2022-10-13T00:15:38.980Z,76.42
2022-10-13T00:16:38.971Z,76.04
2022-10-13T00:17:38.959Z,76.35
2022-10-13T00:18:38.947Z,76.31
2022-10-13T00:19:38.981Z,76.56
2022-10-13T00:20:38.935Z,76.56
2022-10-13T00:21:38.916Z,76.45
2022-10-13T00:22:38.907Z,76.76
2022-10-13T00:23:38.895Z,76.65
2022-10-13T00:24:38.883Z,76.56
2022-10-13T00:25:38.875Z,77.37
2022-10-13T00:26:38.868Z,76.86
2022-10-13T00:27:38.852Z,76.56
2022-10-13T00:28:38.841Z,76.31
2022-10-13T00:29:38.828Z,75.81
2022-10-13T00:30:38.818Z,75.81
2022-10-13T00:31:38.815Z,76.01
2022-10-13T00:32:38.798Z,75.84
2022-10-13T00:33:38.790Z,75.74
2022-10-13T00:34:38.780Z,76.04
2022-10-13T00:35:38.772Z,75.74
2022-10-13T00:36:38.757Z,76.56
2022-10-13T00:37:38.744Z,76.49
2022-10-13T00:38:38.745Z,76.28
2022-10-13T00:39:38.725Z,77.1
2022-10-13T00:40:38.717Z,76.79
2022-10-13T00:41:38.708Z,77.2
2022-10-13T00:42:38.693Z,76.65
2022-10-13T00:43:38.684Z,76.45
2022-10-13T00:44:38.682Z,76.45
2022-10-13T00:45:38.668Z,76.04
2022-10-13T00:46:38.660Z,76.79
2022-10-13T00:47:38.644Z,76.56
2022-10-13T00:48:38.638Z,76.35
2022-10-13T00:49:38.620Z,75.7
2022-10-13T00:50:38.622Z,75.54
2022-10-13T00:51:38.605Z,75.54
2022-10-13T00:52:38.595Z,75.64
2022-10-13T00:53:38.578Z,75.4
2022-10-13T00:54:38.570Z,75.3
2022-10-13T00:55:38.557Z,75.09
2022-10-13T00:56:38.553Z,75.09
2022-10-13T00:57:38.546Z,75.13
2022-10-13T00:58:38.534Z,75.95
2022-10-13T00:59:38.519Z,75.54
2022-10-13T01:00:38.507Z,76.04
2022-10-13T01:01:38.493Z,75.33
2022-10-13T01:02:38.485Z,75.64
2022-10-13T01:03:38.478Z,75.57
2022-10-13T01:04:38.467Z,76.04
2022-10-13T01:05:38.449Z,75.84
2022-10-13T01:06:38.442Z,75.95
2022-10-13T01:07:38.469Z,75.74
2022-10-13T01:08:38.422Z,75.64
2022-10-13T01:09:38.437Z,75.2
2022-10-13T01:10:38.394Z,75.43
2022-10-13T01:11:38.390Z,75.4
2022-10-13T01:12:38.394Z,75.23
2022-10-13T01:13:38.393Z,75.33
2022-10-13T01:14:38.354Z,75.47
2022-10-13T01:15:38.399Z,76.28
2022-10-13T01:16:38.334Z,75.98
2022-10-13T01:17:38.361Z,75.88
2022-10-13T01:18:38.344Z,76.22
2022-10-13T01:19:38.310Z,76.62
2022-10-13T01:20:38.289Z,76.93
2022-10-13T01:21:38.355Z,76.83
2022-10-13T01:22:38.309Z,76.62
2022-10-13T01:23:38.286Z,76.69
2022-10-13T01:24:38.268Z,76.62
2022-10-13T01:25:38.279Z,76.28
2022-10-13T01:26:38.238Z,76.39
2022-10-13T01:27:38.244Z,76.08
2022-10-13T01:28:38.206Z,76.28
2022-10-13T01:29:38.225Z,75.88
2022-10-13T01:30:38.186Z,76.18
2022-10-13T01:31:38.175Z,76.39
2022-10-13T01:32:38.166Z,75.64
2022-10-13T01:33:38.152Z,75.33
2022-10-13T01:34:38.141Z,75.06
2022-10-13T01:35:38.137Z,75.98
2022-10-13T01:36:38.119Z,76.01
2022-10-13T01:37:38.116Z,76.73
2022-10-13T01:38:38.102Z,76.49
2022-10-13T01:39:38.087Z,76.39
2022-10-13T01:40:38.083Z,76.39
2022-10-13T01:41:38.069Z,76.53
2022-10-13T01:42:38.053Z,76.62
2022-10-13T01:43:38.046Z,76.73
2022-10-13T01:44:38.037Z,77.14
2022-10-13T01:45:38.020Z,77.03
2022-10-13T01:46:38.010Z,76.62
2022-10-13T01:47:38.021Z,76.97
2022-10-13T01:48:38.492Z,77.17
2022-10-13T01:49:37.981Z,77.17
2022-10-13T01:50:37.977Z,77.07
2022-10-13T01:51:37.961Z,77.78
2022-10-13T01:52:37.964Z,77.68
2022-10-13T01:53:37.948Z,76.87
2022-10-13T01:54:37.939Z,77.37
2022-10-13T01:55:37.923Z,76.87
2022-10-13T01:56:37.958Z,77.68
2022-10-13T01:57:37.940Z,76.87
2022-10-13T01:58:37.885Z,76.66
2022-10-13T01:59:37.931Z,77.31
2022-10-13T02:00:37.860Z,77.86
2022-10-13T02:01:37.883Z,78.02
2022-10-13T02:02:37.839Z,77.92
2022-10-13T02:03:37.865Z,78.02
2022-10-13T02:04:37.940Z,77.62
2022-10-13T02:05:37.808Z,77.86
2022-10-13T02:06:37.797Z,77.92
2022-10-13T02:07:37.788Z,78.16
2022-10-13T02:08:37.789Z,77.92
2022-10-13T02:09:37.764Z,77.72
2022-10-13T02:10:37.758Z,77.92
2022-10-13T02:11:37.752Z,77.41
2022-10-13T02:12:37.732Z,78.02
2022-10-13T02:13:37.720Z,77.41
2022-10-13T02:14:37.737Z,77.11
2022-10-13T02:15:37.722Z,77.62
2022-10-13T02:16:37.698Z,77.51
2022-10-13T02:17:37.683Z,77.55
2022-10-13T02:18:37.677Z,78.67
2022-10-13T02:19:37.662Z,78.12
2022-10-13T02:20:37.655Z,77
2022-10-13T02:21:37.639Z,77.48
2022-10-13T02:22:37.640Z,77.37
2022-10-13T02:23:37.620Z,76.87
2022-10-13T02:24:37.608Z,77.37
2022-10-13T02:25:37.600Z,77.07
2022-10-13T02:26:37.588Z,76.76
2022-10-13T02:27:37.577Z,77
2022-10-13T02:28:37.573Z,77.07
2022-10-13T02:29:37.552Z,76.76
2022-10-13T02:30:37.553Z,76.87
2022-10-13T02:31:37.534Z,76.76
2022-10-13T02:32:37.522Z,76.73
2022-10-13T02:33:37.517Z,76.93
2022-10-13T02:34:37.498Z,76.83
2022-10-13T02:35:37.492Z,77.03
2022-10-13T02:36:37.484Z,77.03
2022-10-13T02:37:37.468Z,77.14
2022-10-13T02:38:37.461Z,77.48
2022-10-13T02:39:37.445Z,77.78
2022-10-13T02:40:37.435Z,77.27
2022-10-13T02:41:37.434Z,77.58
2022-10-13T02:42:37.414Z,77.58
2022-10-13T02:43:37.402Z,77.48
2022-10-13T02:44:37.390Z,77.41
2022-10-13T02:45:37.396Z,78.02
2022-10-13T02:46:37.370Z,78.23
2022-10-13T02:47:37.384Z,77.72
2022-10-13T02:48:37.353Z,78.02
2022-10-13T02:49:37.339Z,77.92
2022-10-13T02:50:37.336Z,77.78
2022-10-13T02:51:37.316Z,77.89
2022-10-13T02:52:37.304Z,77.14
2022-10-13T02:53:37.299Z,76.93
2022-10-13T02:54:37.291Z,76.9
2022-10-13T02:55:37.269Z,76.69
2022-10-13T02:56:37.264Z,77.3
2022-10-13T02:57:37.255Z,77.1
2022-10-13T02:58:37.239Z,77.24
2022-10-13T02:59:37.233Z,77.1
2022-10-13T03:00:37.218Z,76.69
2022-10-13T03:01:37.211Z,76.9
2022-10-13T03:02:37.193Z,76.79
2022-10-13T03:03:37.185Z,76.59
2022-10-13T03:04:37.180Z,76.35
2022-10-13T03:05:37.162Z,76.25
2022-10-13T03:06:37.150Z,75.81
2022-10-13T03:07:37.140Z,75.74
2022-10-13T03:08:37.133Z,75.7
2022-10-13T03:09:37.149Z,75.95
2022-10-13T03:10:37.112Z,76.56
2022-10-13T03:11:37.103Z,76.11
2022-10-13T03:12:37.085Z,76.25
2022-10-13T03:13:37.078Z,76.65
2022-10-13T03:14:37.072Z,76.31
2022-10-13T03:15:37.057Z,76.21
2022-10-13T03:16:37.049Z,76.56
2022-10-13T03:17:37.033Z,76.92
2022-10-13T03:18:37.023Z,76.52
2022-10-13T03:19:37.012Z,76.52
2022-10-13T03:20:37.005Z,76.72
2022-10-13T03:21:36.995Z,76.31
2022-10-13T03:22:36.978Z,75.67
2022-10-13T03:23:36.970Z,75.7
2022-10-13T03:24:36.983Z,76.21
2022-10-13T03:25:36.945Z,76.72
2022-10-13T03:26:36.939Z,76.62
2022-10-13T03:27:36.936Z,76.72
2022-10-13T03:28:36.920Z,76.52
2022-10-13T03:29:36.904Z,76.59
2022-10-13T03:30:36.897Z,76.38
2022-10-13T03:31:36.886Z,76.01
2022-10-13T03:32:36.878Z,76.82
2022-10-13T03:33:36.869Z,76.52
2022-10-13T03:34:36.853Z,76.48
2022-10-13T03:35:36.841Z,76.18
2022-10-13T03:36:36.833Z,75.67
2022-10-13T03:37:36.818Z,75.87
2022-10-13T03:38:36.811Z,75.87
2022-10-13T03:39:36.797Z,76.11
2022-10-13T03:40:36.789Z,76.72
2022-10-13T03:41:36.780Z,76.92
2022-10-13T03:42:36.773Z,76.59
2022-10-13T03:43:36.758Z,75.94
2022-10-13T03:44:36.745Z,75.87
2022-10-13T03:45:36.743Z,75.84
2022-10-13T03:46:36.725Z,75.87
2022-10-13T03:47:36.718Z,75.53
2022-10-13T03:48:36.703Z,75.23
2022-10-13T03:49:36.691Z,74.88
2022-10-13T03:50:36.693Z,74.48
2022-10-13T03:51:36.679Z,74.92
2022-10-13T03:52:36.672Z,75.23
2022-10-13T03:53:36.652Z,74.92
2022-10-13T03:54:36.666Z,74.88
2022-10-13T03:55:36.634Z,74.68
2022-10-13T03:56:36.619Z,74.92
2022-10-13T03:57:36.609Z,75.02
2022-10-13T03:58:36.610Z,75.53
2022-10-13T03:59:36.586Z,75.33
2022-10-13T04:00:36.571Z,75.33
2022-10-13T04:01:36.562Z,75.73
2022-10-13T04:02:36.549Z,75.73
2022-10-13T04:03:36.543Z,75.63
2022-10-13T04:04:36.530Z,75.98
2022-10-13T04:05:36.527Z,76.18
2022-10-13T04:06:36.507Z,76.14
2022-10-13T04:07:36.492Z,75.98
2022-10-13T04:08:36.483Z,76.04
2022-10-13T04:09:36.472Z,76.07
2022-10-13T04:10:36.464Z,76.38
2022-10-13T04:11:36.454Z,76.18
2022-10-13T04:12:36.476Z,75.94
2022-10-13T04:13:36.482Z,75.73
2022-10-13T04:14:36.429Z,76.07
2022-10-13T04:15:36.406Z,76.18
2022-10-13T04:16:36.404Z,76.18
2022-10-13T04:17:36.390Z,76.28
2022-10-13T04:18:36.379Z,76.28
2022-10-13T04:19:36.368Z,76.38
2022-10-13T04:20:36.355Z,75.98
2022-10-13T04:21:36.354Z,76.07
2022-10-13T04:22:36.333Z,76.21
2022-10-13T04:23:36.325Z,76.86
2022-10-13T04:24:36.312Z,77.13
2022-10-13T04:25:36.301Z,76.72
2022-10-13T04:26:36.303Z,76.79
2022-10-13T04:27:36.288Z,76.68
2022-10-13T04:28:36.294Z,75.98
2022-10-13T04:29:36.264Z,76.28
2022-10-13T04:30:36.249Z,76.28
2022-10-13T04:31:36.295Z,75.63
2022-10-13T04:32:36.235Z,76.07
2022-10-13T04:33:36.237Z,76.45
2022-10-13T04:34:36.206Z,75.84
2022-10-13T04:35:36.227Z,75.73
2022-10-13T04:36:36.222Z,75.12
2022-10-13T04:37:36.177Z,76.48
2022-10-13T04:38:36.166Z,76.38
2022-10-13T04:39:36.163Z,76.28
2022-10-13T04:40:36.170Z,75.84
2022-10-13T04:41:36.161Z,75.63
2022-10-13T04:42:36.125Z,75.73
2022-10-13T04:43:36.135Z,75.84
2022-10-13T04:44:36.105Z,75.23
2022-10-13T04:45:36.122Z,75.23
2022-10-13T04:46:36.093Z,75.87
2022-10-13T04:47:36.120Z,75.77
2022-10-13T04:48:36.061Z,76.18
2022-10-13T04:49:36.046Z,76.04
2022-10-13T04:50:36.051Z,75.63
2022-10-13T04:51:36.045Z,76.04
2022-10-13T04:52:36.025Z,75.53
2022-10-13T04:53:36.016Z,75.63
2022-10-13T04:54:36.003Z,75.53
2022-10-13T04:55:35.994Z,75.63
2022-10-13T04:56:35.992Z,75.53
2022-10-13T04:57:35.979Z,75.63
2022-10-13T04:58:35.964Z,75.33
2022-10-13T04:59:35.956Z,76.28
2022-10-13T05:00:35.935Z,76.18
2022-10-13T05:01:35.952Z,76.34
2022-10-13T05:02:35.910Z,76.04
2022-10-13T05:03:35.902Z,75.23
2022-10-13T05:04:35.913Z,75.63
2022-10-13T05:05:35.880Z,75.77
2022-10-13T05:06:35.887Z,76.38
2022-10-13T05:07:35.863Z,76.48
2022-10-13T05:08:35.853Z,76.59
2022-10-13T05:09:35.846Z,76.79
2022-10-13T05:10:35.834Z,76.89
2022-10-13T05:11:35.825Z,76.79
2022-10-13T05:12:35.813Z,77.09
2022-10-13T05:13:35.798Z,77.64
2022-10-13T05:14:35.779Z,77.09
2022-10-13T05:15:35.786Z,77.03
2022-10-13T05:16:35.759Z,77.23
2022-10-13T05:17:35.753Z,77.13
2022-10-13T05:18:35.737Z,76.79
2022-10-13T05:19:35.728Z,77.33
2022-10-13T05:20:35.720Z,77.84
2022-10-13T05:21:35.713Z,77.64
2022-10-13T05:22:35.708Z,76.99
2022-10-13T05:23:35.868Z,77.06
2022-10-13T05:24:35.699Z,76.25
2022-10-13T05:25:35.734Z,76.07
2022-10-13T05:26:35.683Z,76.48
2022-10-13T05:27:35.654Z,76.59
2022-10-13T05:28:35.665Z,76.28
2022-10-13T05:29:35.630Z,76.59
2022-10-13T05:30:35.615Z,76.92
2022-10-13T05:31:35.605Z,77.5
2022-10-13T05:32:35.597Z,76.55
2022-10-13T05:33:35.592Z,75.84
2022-10-13T05:34:35.577Z,76.48
2022-10-13T05:35:35.615Z,76.59
2022-10-13T05:36:35.550Z,76.18
2022-10-13T05:37:35.544Z,76.89
2022-10-13T05:38:35.538Z,76.86
2022-10-13T05:39:35.530Z,75.94
2022-10-13T05:40:35.515Z,75.94
2022-10-13T05:41:35.505Z,76.14
2022-10-13T05:42:35.483Z,76.14
2022-10-13T05:43:35.478Z,76.25
2022-10-13T05:44:35.475Z,76.34
2022-10-13T05:45:35.480Z,76.34
2022-10-13T05:46:35.446Z,75.7
2022-10-13T05:47:35.441Z,75.63
2022-10-13T05:48:35.433Z,75.94
2022-10-13T05:49:35.424Z,75.84
2022-10-13T05:50:35.441Z,76.25
2022-10-13T05:51:35.399Z,76.34
2022-10-13T05:52:35.399Z,76.01
2022-10-13T05:53:35.373Z,75.49
2022-10-13T05:54:35.363Z,75.73
2022-10-13T05:55:35.348Z,75.6
2022-10-13T05:56:35.339Z,75.94
2022-10-13T05:57:35.341Z,76.25
2022-10-13T05:58:35.425Z,76.55
2022-10-13T05:59:35.308Z,76.1
2022-10-13T06:00:35.303Z,75.84
2022-10-13T06:01:35.281Z,76.34
2022-10-13T06:02:35.273Z,76.79
2022-10-13T06:03:35.264Z,77.06
2022-10-13T06:04:35.249Z,77.2
2022-10-13T06:05:35.240Z,76.95
2022-10-13T06:06:35.239Z,76.75
2022-10-13T06:07:35.229Z,76.61
2022-10-13T06:08:35.218Z,75.4
2022-10-13T06:09:35.212Z,75.73
2022-10-13T06:10:35.193Z,76.65
2022-10-13T06:11:35.180Z,76.75
2022-10-13T06:12:35.191Z,76.41
2022-10-13T06:13:35.157Z,76.04
2022-10-13T06:14:35.159Z,76.95
2022-10-13T06:15:35.134Z,76.65
2022-10-13T06:16:35.127Z,76.95
2022-10-13T06:17:35.120Z,76.41
2022-10-13T06:18:35.102Z,76.65
2022-10-13T06:19:35.089Z,76.31
2022-10-13T06:20:35.078Z,75.67
2022-10-13T06:21:35.064Z,75.94
2022-10-13T06:22:35.058Z,76.55
2022-10-13T06:23:35.045Z,76.65
2022-10-13T06:24:35.035Z,77.16
2022-10-13T06:25:35.030Z,76.55
2022-10-13T06:26:35.011Z,76.65
2022-10-13T06:27:35.008Z,76.41
2022-10-13T06:28:34.997Z,76.1
2022-10-13T06:29:34.989Z,75.7
2022-10-13T06:30:34.983Z,76.31
2022-10-13T06:31:34.965Z,76.01
2022-10-13T06:32:34.948Z,75.7
2022-10-13T06:33:34.947Z,76.31
2022-10-13T06:34:34.941Z,76.65
2022-10-13T06:35:34.916Z,77.16
2022-10-13T06:36:34.907Z,76.95
2022-10-13T06:37:34.897Z,76.72
2022-10-13T06:38:34.904Z,75.8
2022-10-13T06:39:34.876Z,76.1
2022-10-13T06:40:34.863Z,76.65
2022-10-13T06:41:34.853Z,76.86
2022-10-13T06:42:34.847Z,76.41
2022-10-13T06:43:34.838Z,76.21
2022-10-13T06:44:34.826Z,76.25
2022-10-13T06:45:34.812Z,76.51
2022-10-13T06:46:34.816Z,76.41
2022-10-13T06:47:34.789Z,75.67
2022-10-13T06:48:34.785Z,75.56
2022-10-13T06:49:34.771Z,75.9
2022-10-13T06:50:34.760Z,75.7
2022-10-13T06:51:34.757Z,76.51
2022-10-13T06:52:34.746Z,75.9
2022-10-13T06:53:34.732Z,76.51
2022-10-13T06:54:34.718Z,76.21
2022-10-13T06:55:34.712Z,75.9
2022-10-13T06:56:34.720Z,76.1
2022-10-13T06:57:34.687Z,76.21
2022-10-13T06:58:34.681Z,76.65
2022-10-13T06:59:34.702Z,76.75
2022-10-13T07:00:34.662Z,77.67
2022-10-13T07:01:35.473Z,77.26
2022-10-13T07:02:34.645Z,76.41
2022-10-13T07:03:34.628Z,76.51
2022-10-13T07:04:34.623Z,75.46
2022-10-13T07:05:34.607Z,75.22
2022-10-13T07:06:34.591Z,74.95
2022-10-13T07:07:34.620Z,75.67
2022-10-13T07:08:34.576Z,76.41
2022-10-13T07:09:34.563Z,75.76
2022-10-13T07:10:34.555Z,75.67
2022-10-13T07:11:34.545Z,75.43
2022-10-13T07:12:34.540Z,75.12
2022-10-13T07:13:34.524Z,74.62
2022-10-13T07:14:34.524Z,74.62
2022-10-13T07:15:34.499Z,74.95
2022-10-13T07:16:34.486Z,75.56
2022-10-13T07:17:34.500Z,75.46
2022-10-13T07:18:34.478Z,75.67
2022-10-13T07:19:34.457Z,75.52
2022-10-13T07:20:34.441Z,75.32
2022-10-13T07:21:34.435Z,74.58
2022-10-13T07:22:34.429Z,74.41
2022-10-13T07:23:34.410Z,74.95
2022-10-13T07:24:34.396Z,75.26
2022-10-13T07:25:34.388Z,75.56
2022-10-13T07:26:34.376Z,75.97
2022-10-13T07:27:34.392Z,76.17
2022-10-13T07:28:34.353Z,75.43
2022-10-13T07:29:34.345Z,75.22
2022-10-13T07:30:34.332Z,74.68
2022-10-13T07:31:34.325Z,73.97
2022-10-13T07:32:34.315Z,75.52
2022-10-13T07:33:34.300Z,75.02
2022-10-13T07:34:34.289Z,74.82
2022-10-13T07:35:34.277Z,74.71
2022-10-13T07:36:34.280Z,75.46
2022-10-13T07:37:34.268Z,75.63
2022-10-13T07:38:34.263Z,74.98
2022-10-13T07:39:34.235Z,74.54
2022-10-13T07:40:34.238Z,73.49
2022-10-13T07:41:34.220Z,72.92
2022-10-13T07:42:34.251Z,73.43
2022-10-13T07:43:34.199Z,73.83
2022-10-13T07:44:34.220Z,73.77
2022-10-13T07:45:34.186Z,73.93
2022-10-13T07:46:34.165Z,74.07
2022-10-13T07:47:34.148Z,74.51
2022-10-13T07:48:34.143Z,75.09
2022-10-13T07:49:34.131Z,74.51
2022-10-13T07:50:34.117Z,75.12
2022-10-13T07:51:34.107Z,75.22
2022-10-13T07:52:34.101Z,75.43
2022-10-13T07:53:34.087Z,75.63
2022-10-13T07:54:34.077Z,75.32
2022-10-13T07:55:34.067Z,75.32
2022-10-13T07:56:34.081Z,75.39
2022-10-13T07:57:34.048Z,74.14
2022-10-13T07:58:34.032Z,73.7
2022-10-13T07:59:34.022Z,74.04
2022-10-13T08:00:34.014Z,73.93
2022-10-13T08:01:34.077Z,73.8
2022-10-13T08:02:33.989Z,73.33
2022-10-13T08:03:33.984Z,74.34
2022-10-13T08:04:33.993Z,74.65
2022-10-13T08:05:33.958Z,73.83
2022-10-13T08:06:33.953Z,74.34
2022-10-13T08:07:33.942Z,73.9
2022-10-13T08:08:33.938Z,73.43
2022-10-13T08:09:33.913Z,74
2022-10-13T08:10:33.933Z,73.19
2022-10-13T08:11:33.909Z,73.16
2022-10-13T08:12:33.887Z,73.19
2022-10-13T08:13:33.900Z,72.99
2022-10-13T08:14:33.903Z,73.6
2022-10-13T08:15:33.866Z,72.99
2022-10-13T08:16:33.835Z,72.89
2022-10-13T08:17:33.840Z,73.25
2022-10-13T08:18:33.816Z,72.75
2022-10-13T08:19:33.813Z,72.96
2022-10-13T08:20:33.792Z,72.75
2022-10-13T08:21:33.818Z,72.11
2022-10-13T08:22:33.774Z,71.8
2022-10-13T08:23:33.761Z,72.41
2022-10-13T08:24:33.752Z,72.21
2022-10-13T08:25:33.742Z,72.81
2022-10-13T08:26:33.732Z,71.8
2022-10-13T08:27:33.720Z,72.11
2022-10-13T08:28:33.707Z,72.81
2022-10-13T08:29:33.706Z,72.45
2022-10-13T08:30:33.684Z,72.21
2022-10-13T08:31:33.677Z,72.31
2022-10-13T08:32:33.666Z,72.72
2022-10-13T08:33:33.658Z,72.01
2022-10-13T08:34:33.645Z,71.88
2022-10-13T08:35:33.645Z,71.88
2022-10-13T08:36:33.654Z,71.97
2022-10-13T08:37:33.665Z,71.44
2022-10-13T08:38:33.597Z,70.73
2022-10-13T08:39:33.589Z,71.44
2022-10-13T08:40:33.593Z,71.57
2022-10-13T08:41:33.592Z,71.7
2022-10-13T08:42:33.554Z,71.88
2022-10-13T08:43:33.587Z,71.67
2022-10-13T08:44:33.540Z,71.97
2022-10-13T08:45:33.530Z,71.88
2022-10-13T08:46:33.522Z,72.17
2022-10-13T08:47:33.510Z,71.64
2022-10-13T08:48:33.495Z,70.83
2022-10-13T08:49:33.479Z,71.97
2022-10-13T08:50:33.527Z,71.33
2022-10-13T08:51:33.463Z,71.67
2022-10-13T08:52:33.445Z,71.44
2022-10-13T08:53:33.443Z,70.59
2022-10-13T08:54:33.428Z,70.42
2022-10-13T08:55:33.418Z,70.96
2022-10-13T08:56:33.407Z,71.37
2022-10-13T08:57:33.400Z,72.41
2022-10-13T08:58:33.405Z,72.08
2022-10-13T08:59:33.416Z,71.64
2022-10-13T09:00:33.381Z,70.73
2022-10-13T09:01:33.355Z,70.93
2022-10-13T09:02:33.344Z,71.03
2022-10-13T09:03:33.342Z,70.93
2022-10-13T09:04:33.339Z,69.82
2022-10-13T09:05:33.318Z,66.89
2022-10-13T09:06:33.299Z,65.42
2022-10-13T09:07:33.286Z,65.26
2022-10-13T09:08:33.279Z,64.55
2022-10-13T09:09:33.261Z,62.78
2022-10-13T09:10:33.253Z,62.05
2022-10-13T09:11:33.242Z,62.18
2022-10-13T09:12:33.239Z,62.58
2022-10-13T09:13:33.225Z,62.91
2022-10-13T09:14:33.217Z,62.81
2022-10-13T09:15:33.228Z,62.27
2022-10-13T09:16:33.222Z,61.54
2022-10-13T09:17:33.178Z,61.85
2022-10-13T09:18:33.171Z,61.21
2022-10-13T09:19:33.156Z,62.58
2022-10-13T09:20:33.154Z,63.95
2022-10-13T09:21:33.137Z,65.01
2022-10-13T09:22:33.130Z,65.32
2022-10-13T09:23:33.124Z,65.52
2022-10-13T09:24:33.132Z,65.62
2022-10-13T09:25:33.092Z,66.22
2022-10-13T09:26:33.082Z,66.76
2022-10-13T09:27:33.069Z,66.42
2022-10-13T09:28:33.057Z,65.69
2022-10-13T09:29:33.049Z,66.02
2022-10-13T09:30:33.103Z,65.39
2022-10-13T09:31:33.960Z,65.72
2022-10-13T09:32:33.018Z,66.66
2022-10-13T09:33:33.007Z,66.46
2022-10-13T09:34:32.995Z,66.79
2022-10-13T09:35:32.986Z,68.24
2022-10-13T09:36:32.977Z,68.44
2022-10-13T09:37:32.979Z,68.1
2022-10-13T09:38:32.959Z,67.6
2022-10-13T09:39:32.954Z,67.5
2022-10-13T09:40:32.971Z,68.21
2022-10-13T09:41:32.922Z,67.47
2022-10-13T09:42:32.910Z,67.57
2022-10-13T09:43:32.910Z,66.83
2022-10-13T09:44:32.895Z,66.96
2022-10-13T09:45:32.890Z,67.5
2022-10-13T09:46:32.863Z,67.57
2022-10-13T09:47:32.859Z,66.9
2022-10-13T09:48:32.846Z,66.16
2022-10-13T09:49:32.837Z,65.46
2022-10-13T09:50:32.826Z,64.72
2022-10-13T09:51:32.821Z,65.59
2022-10-13T09:52:32.803Z,66.19
2022-10-13T09:53:32.811Z,66.09
2022-10-13T09:54:32.780Z,66.42
2022-10-13T09:55:32.769Z,67.27
2022-10-13T09:56:32.760Z,67.8
2022-10-13T09:57:32.744Z,67.87
2022-10-13T09:58:32.753Z,67.43
2022-10-13T09:59:32.732Z,67.03
2022-10-13T10:00:32.718Z,66.63
2022-10-13T10:01:32.707Z,67.84
2022-10-13T10:02:32.743Z,66.09
2022-10-13T10:03:32.704Z,66.93
2022-10-13T10:04:32.692Z,66.8
2022-10-13T10:05:32.697Z,67.33
2022-10-13T10:06:32.655Z,66.56
2022-10-13T10:07:32.664Z,65.59
2022-10-13T10:08:32.655Z,64.53
2022-10-13T10:09:32.661Z,63.59
2022-10-13T10:10:32.701Z,62.69
2022-10-13T10:11:32.609Z,63.22
2022-10-13T10:12:32.701Z,63.62
2022-10-13T10:13:32.609Z,64.39
2022-10-13T10:14:32.583Z,64.46
2022-10-13T10:15:32.587Z,63.49
2022-10-13T10:16:32.565Z,62.56
2022-10-13T10:17:32.547Z,62.83
2022-10-13T10:18:32.559Z,61.9
2022-10-13T10:19:32.513Z,61.36
2022-10-13T10:20:32.509Z,60.66
2022-10-13T10:21:32.508Z,61.07
2022-10-13T10:22:32.543Z,60.97
2022-10-13T10:23:32.468Z,60.74
2022-10-13T10:24:32.480Z,60.33
2022-10-13T10:25:32.455Z,60.77
2022-10-13T10:26:32.436Z,62
2022-10-13T10:27:32.440Z,61.6
2022-10-13T10:28:32.411Z,62.23
2022-10-13T10:29:32.428Z,62.83
2022-10-13T10:30:33.443Z,62.43
2022-10-13T10:31:32.381Z,63.36
2022-10-13T10:32:32.438Z,63.46
2022-10-13T10:33:32.378Z,62.33
2022-10-13T10:34:32.410Z,62.13
2022-10-13T10:35:32.354Z,60.77
2022-10-13T10:36:32.338Z,60.16
2022-10-13T10:37:32.331Z,60.89
2022-10-13T10:38:32.473Z,61.14
2022-10-13T10:39:33.311Z,59.61
2022-10-13T10:40:32.348Z,59.64
2022-10-13T10:41:32.457Z,60.14
2022-10-13T10:42:33.512Z,59.77
2022-10-13T10:43:32.304Z,60.06
2022-10-13T10:44:33.295Z,60.27
2022-10-13T10:45:32.243Z,59.64
2022-10-13T10:46:32.227Z,58.78
2022-10-13T10:47:32.204Z,58.58
2022-10-13T10:48:32.220Z,58.58
2022-10-13T10:49:32.209Z,58.55
2022-10-13T10:50:32.178Z,57.22
2022-10-13T10:51:32.179Z,57.45
2022-10-13T10:52:32.171Z,57.78
2022-10-13T10:53:32.143Z,58.5
2022-10-13T10:54:32.132Z,58.48
2022-10-13T10:55:32.142Z,57.8
2022-10-13T10:56:32.110Z,59.03
2022-10-13T10:57:32.095Z,59
2022-10-13T10:58:32.089Z,58.15
2022-10-13T10:59:32.070Z,57.32
2022-10-13T11:00:32.087Z,56.57
2022-10-13T11:01:32.072Z,56.37
2022-10-13T11:02:32.055Z,55.97
2022-10-13T11:03:32.130Z,55.89
2022-10-13T11:04:32.024Z,55.89
2022-10-13T11:05:32.006Z,56.27
2022-10-13T11:06:32.035Z,55.34
2022-10-13T11:07:31.997Z,56.07
2022-10-13T11:08:31.997Z,55.64
2022-10-13T11:09:32.010Z,54.91
2022-10-13T11:10:31.956Z,54.74
2022-10-13T11:11:31.947Z,54.49
2022-10-13T11:12:31.935Z,53.96
2022-10-13T11:13:31.921Z,52.81
2022-10-13T11:14:31.973Z,53.04
2022-10-13T11:15:31.900Z,53.54
2022-10-13T11:16:31.907Z,52.81
2022-10-13T11:17:31.877Z,51.97
2022-10-13T11:18:31.869Z,50.7
2022-10-13T11:19:31.885Z,50.16
2022-10-13T11:20:31.880Z,49.26
2022-10-13T11:21:31.888Z,48.94
2022-10-13T11:22:31.844Z,48.52
2022-10-13T11:23:31.846Z,47.68
2022-10-13T11:24:31.814Z,47.09
2022-10-13T11:25:31.794Z,47.41
2022-10-13T11:26:31.854Z,48.14
2022-10-13T11:27:31.776Z,48.91
2022-10-13T11:28:31.771Z,50.05
2022-10-13T11:29:31.769Z,50.35
2022-10-13T11:30:31.763Z,50.45
2022-10-13T11:31:31.775Z,50.55
2022-10-13T11:32:31.721Z,50.2
2022-10-13T11:33:31.717Z,52.27
2022-10-13T11:34:31.705Z,53.02
2022-10-13T11:35:31.701Z,52.97
2022-10-13T11:36:31.682Z,53.42
2022-10-13T11:37:31.672Z,54.34
2022-10-13T11:38:31.689Z,53.47
2022-10-13T11:40:31.723Z,52.87
2022-10-13T11:41:31.635Z,52.02
2022-10-13T11:42:31.626Z,52.14
2022-10-13T11:43:31.695Z,52.34
2022-10-13T11:44:31.602Z,52.97
2022-10-13T11:45:31.602Z,52.87
2022-10-13T11:46:31.573Z,53.06
2022-10-13T11:47:31.582Z,52.55
2022-10-13T11:48:31.597Z,52.57
2022-10-13T11:49:31.541Z,53.06
2022-10-13T11:50:31.531Z,52.97
2022-10-13T11:51:31.584Z,53.12
2022-10-13T11:52:31.513Z,54.99
2022-10-13T11:53:31.497Z,55.27
2022-10-13T11:54:31.485Z,54.54
2022-10-13T11:55:31.494Z,54.64
2022-10-13T11:56:31.476Z,53.59
2022-10-13T11:57:31.456Z,53.17
2022-10-13T11:58:31.449Z,53.47
2022-10-13T11:59:31.429Z,53.29
2022-10-13T12:00:31.432Z,54.11
2022-10-13T12:01:31.440Z,53.89
2022-10-13T12:02:31.445Z,53.47
2022-10-13T12:03:31.383Z,52.19
2022-10-13T12:04:31.385Z,51.47
2022-10-13T12:05:31.370Z,51.5
2022-10-13T12:06:31.354Z,51.29
2022-10-13T12:07:31.362Z,51.17
2022-10-13T12:08:31.337Z,51.5
2022-10-13T12:09:31.326Z,51.4
2022-10-13T12:10:31.317Z,52.02
2022-10-13T12:11:31.332Z,51.79
2022-10-13T12:12:31.290Z,52
2022-10-13T12:13:31.300Z,51.2
2022-10-13T12:14:31.260Z,51.2
2022-10-13T12:15:31.263Z,51.22
2022-10-13T12:16:31.259Z,51.32
2022-10-13T12:17:31.244Z,51.2
2022-10-13T12:18:31.240Z,50.55
2022-10-13T12:19:31.210Z,50.03
2022-10-13T12:20:31.251Z,49.11
2022-10-13T12:21:31.194Z,49.63
2022-10-13T12:22:31.178Z,49.08
2022-10-13T12:23:31.169Z,48.25
2022-10-13T12:24:31.151Z,47.85
2022-10-13T12:25:31.143Z,49.33
2022-10-13T12:26:31.134Z,50.27
2022-10-13T12:27:31.129Z,50.15
2022-10-13T12:28:31.157Z,49.21
2022-10-13T12:29:31.142Z,48.94
2022-10-13T12:30:31.090Z,50.48
2022-10-13T12:31:31.076Z,50.52
2022-10-13T12:32:31.071Z,51.97
2022-10-13T12:33:31.052Z,52.59
2022-10-13T12:34:31.044Z,53.31
2022-10-13T12:35:31.035Z,53.42
2022-10-13T12:36:31.060Z,54.14
2022-10-13T12:37:31.224Z,53.74
2022-10-13T12:38:31.034Z,53.74
2022-10-13T12:39:31.038Z,54.29
2022-10-13T12:40:31.038Z,54.47
2022-10-13T12:41:30.975Z,54.17
2022-10-13T12:42:30.959Z,54.14
2022-10-13T12:43:31.061Z,54.39
2022-10-13T12:44:30.944Z,55.85
2022-10-13T12:45:30.952Z,55.32
2022-10-13T12:46:30.922Z,55.09
2022-10-13T12:47:31.008Z,54.57
2022-10-13T12:48:30.970Z,54.99
2022-10-13T12:49:30.897Z,55.74
2022-10-13T12:50:30.922Z,56.24
2022-10-13T12:51:30.921Z,55.72
2022-10-13T12:52:30.898Z,56.12
2022-10-13T12:53:30.873Z,55.57
2022-10-13T12:54:30.831Z,54.84
2022-10-13T12:55:30.922Z,54.64
2022-10-13T12:56:30.807Z,54.64